sensor_id;sensor_type;location;lat;lon;timestamp;temperature;humidity
19132;DHT22;9698;51.976;7.570;2023-08-08T00:04:21;16.60;99.90
19132;DHT22;9698;51.976;7.570;2023-08-08T00:36:19;16.20;99.90
19132;DHT22;9698;51.976;7.570;2023-08-08T00:43:43;15.90;99.90
19132;DHT22;9698;51.976;7.570;2023-08-08T00:48:39;16.00;99.90
19132;DHT22;9698;51.976;7.570;2023-08-08T00:51:07;15.90;99.90
19132;DHT22;9698;51.976;7.570;2023-08-08T01:00:58;16.10;99.90
19132;DHT22;9698;51.976;7.570;2023-08-08T01:06:01;15.80;99.90
19132;DHT22;9698;51.976;7.570;2023-08-08T01:08:40;15.90;99.90
19132;DHT22;9698;51.976;7.570;2023-08-08T01:13:41;15.80;99.90
19132;DHT22;9698;51.976;7.570;2023-08-08T01:26:08;15.50;99.90
19132;DHT22;9698;51.976;7.570;2023-08-08T01:28:39;15.50;99.90
19132;DHT22;9698;51.976;7.570;2023-08-08T01:31:07;15.00;99.90
19132;DHT22;9698;51.976;7.570;2023-08-08T01:36:07;15.50;99.90
19132;DHT22;9698;51.976;7.570;2023-08-08T01:41:08;15.60;99.90
19132;DHT22;9698;51.976;7.570;2023-08-08T01:43:38;15.50;99.90
19132;DHT22;9698;51.976;7.570;2023-08-08T01:46:07;15.50;99.90
19132;DHT22;9698;51.976;7.570;2023-08-08T01:48:36;15.30;99.90
19132;DHT22;9698;51.976;7.570;2023-08-08T01:51:03;15.40;99.90
19132;DHT22;9698;51.976;7.570;2023-08-08T01:55:59;15.40;99.90
19132;DHT22;9698;51.976;7.570;2023-08-08T01:58:27;15.40;99.90
19132;DHT22;9698;51.976;7.570;2023-08-08T02:08:17;15.30;99.90
19132;DHT22;9698;51.976;7.570;2023-08-08T02:10:45;15.50;99.90
19132;DHT22;9698;51.976;7.570;2023-08-08T02:23:05;15.70;99.90
19132;DHT22;9698;51.976;7.570;2023-08-08T02:25:33;15.40;99.90
19132;DHT22;9698;51.976;7.570;2023-08-08T02:30:29;15.40;99.90
19132;DHT22;9698;51.976;7.570;2023-08-08T02:40:19;15.40;99.90
19132;DHT22;9698;51.976;7.570;2023-08-08T02:42:47;15.50;99.90
19132;DHT22;9698;51.976;7.570;2023-08-08T02:50:11;15.40;99.90
19132;DHT22;9698;51.976;7.570;2023-08-08T02:55:09;16.10;99.90
19132;DHT22;9698;51.976;7.570;2023-08-08T03:02:32;15.40;99.90
19132;DHT22;9698;51.976;7.570;2023-08-08T03:05:00;15.40;99.90
19132;DHT22;9698;51.976;7.570;2023-08-08T03:07:28;15.30;99.90
19132;DHT22;9698;51.976;7.570;2023-08-08T03:24:42;15.30;99.90
19132;DHT22;9698;51.976;7.570;2023-08-08T03:29:37;15.40;99.90
19132;DHT22;9698;51.976;7.570;2023-08-08T03:32:06;15.40;99.90
19132;DHT22;9698;51.976;7.570;2023-08-08T03:37:02;15.40;99.90
19132;DHT22;9698;51.976;7.570;2023-08-08T03:44:26;15.20;99.90
19132;DHT22;9698;51.976;7.570;2023-08-08T03:46:54;15.30;99.90
19132;DHT22;9698;51.976;7.570;2023-08-08T03:49:36;15.20;99.90
19132;DHT22;9698;51.976;7.570;2023-08-08T03:52:06;15.10;99.90
19132;DHT22;9698;51.976;7.570;2023-08-08T03:54:34;15.20;99.90
19132;DHT22;9698;51.976;7.570;2023-08-08T04:01:57;15.20;99.90
19132;DHT22;9698;51.976;7.570;2023-08-08T04:06:52;15.00;99.90
19132;DHT22;9698;51.976;7.570;2023-08-08T04:16:43;15.30;99.90
19132;DHT22;9698;51.976;7.570;2023-08-08T04:38:57;15.10;99.90
19132;DHT22;9698;51.976;7.570;2023-08-08T04:41:25;15.10;99.90
19132;DHT22;9698;51.976;7.570;2023-08-08T04:58:38;15.20;99.90
19132;DHT22;9698;51.976;7.570;2023-08-08T05:06:04;15.00;99.90
19132;DHT22;9698;51.976;7.570;2023-08-08T05:10:59;15.20;99.90
19132;DHT22;9698;51.976;7.570;2023-08-08T05:15:55;15.20;99.90
19132;DHT22;9698;51.976;7.570;2023-08-08T05:20:51;15.10;99.90
19132;DHT22;9698;51.976;7.570;2023-08-08T05:25:46;15.10;99.90
19132;DHT22;9698;51.976;7.570;2023-08-08T05:30:41;15.10;99.90
19132;DHT22;9698;51.976;7.570;2023-08-08T05:38:05;14.70;99.90
19132;DHT22;9698;51.976;7.570;2023-08-08T05:43:04;15.10;99.90
19132;DHT22;9698;51.976;7.570;2023-08-08T05:50:28;14.90;99.90
19132;DHT22;9698;51.976;7.570;2023-08-08T06:07:41;15.30;99.90
19132;DHT22;9698;51.976;7.570;2023-08-08T06:10:10;15.30;99.90
19132;DHT22;9698;51.976;7.570;2023-08-08T06:12:38;15.20;99.90
19132;DHT22;9698;51.976;7.570;2023-08-08T06:17:35;15.30;99.90
19132;DHT22;9698;51.976;7.570;2023-08-08T06:22:32;15.20;99.90
19132;DHT22;9698;51.976;7.570;2023-08-08T06:25:00;15.20;99.90
19132;DHT22;9698;51.976;7.570;2023-08-08T06:37:18;15.50;99.90
19132;DHT22;9698;51.976;7.570;2023-08-08T06:39:46;15.40;99.90
19132;DHT22;9698;51.976;7.570;2023-08-08T06:44:43;15.70;99.90
19132;DHT22;9698;51.976;7.570;2023-08-08T06:47:11;15.50;99.90
19132;DHT22;9698;51.976;7.570;2023-08-08T06:49:39;15.50;99.90
19132;DHT22;9698;51.976;7.570;2023-08-08T06:52:07;15.50;99.90
19132;DHT22;9698;51.976;7.570;2023-08-08T06:57:04;15.60;99.90
19132;DHT22;9698;51.976;7.570;2023-08-08T07:04:27;15.60;99.90
19132;DHT22;9698;51.976;7.570;2023-08-08T07:11:50;15.60;99.90
19132;DHT22;9698;51.976;7.570;2023-08-08T07:19:13;15.50;99.90
19132;DHT22;9698;51.976;7.570;2023-08-08T07:24:09;15.80;99.90
19132;DHT22;9698;51.976;7.570;2023-08-08T07:31:33;15.80;99.90
19132;DHT22;9698;51.976;7.570;2023-08-08T07:41:29;15.90;99.90
19132;DHT22;9698;51.976;7.570;2023-08-08T07:53:47;15.80;99.90
19132;DHT22;9698;51.976;7.570;2023-08-08T07:58:42;15.80;99.90
19132;DHT22;9698;51.976;7.570;2023-08-08T08:01:10;15.90;99.90
19132;DHT22;9698;51.976;7.570;2023-08-08T08:03:39;15.60;99.90
19132;DHT22;9698;51.976;7.570;2023-08-08T08:06:07;15.70;99.90
19132;DHT22;9698;51.976;7.570;2023-08-08T08:13:31;15.80;99.90
19132;DHT22;9698;51.976;7.570;2023-08-08T08:18:26;16.00;99.90
19132;DHT22;9698;51.976;7.570;2023-08-08T08:23:24;16.40;99.90
